sensor_id;sensor_type;location;lat;lon;timestamp;P1;durP1;ratioP1;P2;durP2;ratioP2
34278;SDS011;20538;51.528;9.942;2022-10-22T00:00:12;16.88;;;11.15;;
34278;SDS011;20538;51.528;9.942;2022-10-22T00:02:40;17.15;;;10.60;;
34278;SDS011;20538;51.528;9.942;2022-10-22T00:05:06;19.27;;;11.38;;
34278;SDS011;20538;51.528;9.942;2022-10-22T00:07:32;16.33;;;10.82;;
34278;SDS011;20538;51.528;9.942;2022-10-22T00:09:58;18.35;;;11.10;;
34278;SDS011;20538;51.528;9.942;2022-10-22T00:12:24;20.80;;;11.18;;
34278;SDS011;20538;51.528;9.942;2022-10-22T00:14:49;18.58;;;10.65;;
34278;SDS011;20538;51.528;9.942;2022-10-22T00:17:15;19.40;;;11.43;;
34278;SDS011;20538;51.528;9.942;2022-10-22T00:19:41;18.65;;;11.32;;
34278;SDS011;20538;51.528;9.942;2022-10-22T00:22:07;18.65;;;10.70;;
34278;SDS011;20538;51.528;9.942;2022-10-22T00:24:36;23.85;;;11.27;;
34278;SDS011;20538;51.528;9.942;2022-10-22T00:27:12;19.25;;;10.60;;
34278;SDS011;20538;51.528;9.942;2022-10-22T00:29:38;21.30;;;11.23;;
34278;SDS011;20538;51.528;9.942;2022-10-22T00:32:04;17.70;;;10.70;;
34278;SDS011;20538;51.528;9.942;2022-10-22T00:34:30;16.40;;;10.32;;
34278;SDS011;20538;51.528;9.942;2022-10-22T00:36:56;19.52;;;10.07;;
34278;SDS011;20538;51.528;9.942;2022-10-22T00:39:23;16.67;;;10.02;;
34278;SDS011;20538;51.528;9.942;2022-10-22T00:41:50;15.32;;;9.27;;
34278;SDS011;20538;51.528;9.942;2022-10-22T00:47:27;15.55;;;9.32;;
34278;SDS011;20538;51.528;9.942;2022-10-22T00:49:56;21.10;;;10.73;;
34278;SDS011;20538;51.528;9.942;2022-10-22T00:52:23;18.70;;;9.75;;
34278;SDS011;20538;51.528;9.942;2022-10-22T00:54:49;19.27;;;11.25;;
34278;SDS011;20538;51.528;9.942;2022-10-22T00:57:15;16.38;;;10.00;;
34278;SDS011;20538;51.528;9.942;2022-10-22T00:59:43;20.92;;;10.55;;
34278;SDS011;20538;51.528;9.942;2022-10-22T01:02:12;15.88;;;10.82;;
34278;SDS011;20538;51.528;9.942;2022-10-22T01:04:37;21.48;;;10.82;;
34278;SDS011;20538;51.528;9.942;2022-10-22T01:07:04;17.50;;;10.23;;
34278;SDS011;20538;51.528;9.942;2022-10-22T01:12:35;19.38;;;9.98;;
34278;SDS011;20538;51.528;9.942;2022-10-22T01:15:27;18.35;;;10.15;;
34278;SDS011;20538;51.528;9.942;2022-10-22T01:18:04;17.50;;;10.38;;
34278;SDS011;20538;51.528;9.942;2022-10-22T01:20:53;18.60;;;10.55;;
34278;SDS011;20538;51.528;9.942;2022-10-22T01:23:33;19.15;;;10.15;;
34278;SDS011;20538;51.528;9.942;2022-10-22T01:26:27;24.00;;;11.32;;
34278;SDS011;20538;51.528;9.942;2022-10-22T01:29:11;18.73;;;11.07;;
34278;SDS011;20538;51.528;9.942;2022-10-22T01:31:50;21.25;;;10.55;;
34278;SDS011;20538;51.528;9.942;2022-10-22T01:34:23;19.83;;;10.35;;
34278;SDS011;20538;51.528;9.942;2022-10-22T01:36:50;25.83;;;12.35;;
34278;SDS011;20538;51.528;9.942;2022-10-22T01:39:18;17.60;;;10.32;;
34278;SDS011;20538;51.528;9.942;2022-10-22T01:41:47;19.58;;;10.63;;
34278;SDS011;20538;51.528;9.942;2022-10-22T02:00:59;21.17;;;11.25;;
34278;SDS011;20538;51.528;9.942;2022-10-22T02:03:48;24.58;;;12.30;;
34278;SDS011;20538;51.528;9.942;2022-10-22T02:06:20;21.52;;;12.00;;
34278;SDS011;20538;51.528;9.942;2022-10-22T02:08:49;23.25;;;12.25;;
34278;SDS011;20538;51.528;9.942;2022-10-22T02:11:17;24.67;;;11.32;;
34278;SDS011;20538;51.528;9.942;2022-10-22T02:13:47;22.77;;;11.82;;
34278;SDS011;20538;51.528;9.942;2022-10-22T02:16:37;22.90;;;11.75;;
34278;SDS011;20538;51.528;9.942;2022-10-22T02:19:10;20.55;;;11.02;;
34278;SDS011;20538;51.528;9.942;2022-10-22T02:21:44;18.10;;;10.77;;
34278;SDS011;20538;51.528;9.942;2022-10-22T02:24:10;21.65;;;11.15;;
34278;SDS011;20538;51.528;9.942;2022-10-22T02:26:46;21.40;;;11.93;;
34278;SDS011;20538;51.528;9.942;2022-10-22T02:29:26;18.92;;;11.05;;
34278;SDS011;20538;51.528;9.942;2022-10-22T02:31:59;20.25;;;10.98;;
34278;SDS011;20538;51.528;9.942;2022-10-22T02:34:27;19.17;;;11.48;;
34278;SDS011;20538;51.528;9.942;2022-10-22T02:36:55;26.30;;;12.00;;
34278;SDS011;20538;51.528;9.942;2022-10-22T02:39:22;20.30;;;11.40;;
34278;SDS011;20538;51.528;9.942;2022-10-22T02:41:48;22.58;;;12.65;;
34278;SDS011;20538;51.528;9.942;2022-10-22T02:44:14;20.15;;;12.00;;
34278;SDS011;20538;51.528;9.942;2022-10-22T02:46:44;26.85;;;12.35;;
34278;SDS011;20538;51.528;9.942;2022-10-22T02:49:10;21.98;;;11.75;;
34278;SDS011;20538;51.528;9.942;2022-10-22T02:51:35;19.63;;;12.25;;
34278;SDS011;20538;51.528;9.942;2022-10-22T02:54:01;20.23;;;11.93;;
34278;SDS011;20538;51.528;9.942;2022-10-22T02:56:27;24.92;;;11.95;;
34278;SDS011;20538;51.528;9.942;2022-10-22T02:58:52;22.33;;;11.15;;
34278;SDS011;20538;51.528;9.942;2022-10-22T03:01:18;18.00;;;10.90;;
34278;SDS011;20538;51.528;9.942;2022-10-22T03:03:44;21.77;;;12.13;;
34278;SDS011;20538;51.528;9.942;2022-10-22T03:06:09;21.80;;;11.75;;
34278;SDS011;20538;51.528;9.942;2022-10-22T03:08:35;20.17;;;12.02;;
34278;SDS011;20538;51.528;9.942;2022-10-22T03:11:00;21.92;;;10.95;;
34278;SDS011;20538;51.528;9.942;2022-10-22T03:13:26;21.58;;;11.10;;
34278;SDS011;20538;51.528;9.942;2022-10-22T03:15:52;21.30;;;11.15;;
34278;SDS011;20538;51.528;9.942;2022-10-22T03:18:17;22.13;;;12.02;;
34278;SDS011;20538;51.528;9.942;2022-10-22T03:20:43;19.23;;;11.77;;
34278;SDS011;20538;51.528;9.942;2022-10-22T03:23:09;18.33;;;11.85;;
34278;SDS011;20538;51.528;9.942;2022-10-22T03:25:38;22.45;;;11.73;;
34278;SDS011;20538;51.528;9.942;2022-10-22T03:28:06;23.95;;;12.55;;
34278;SDS011;20538;51.528;9.942;2022-10-22T03:30:34;27.45;;;12.07;;
34278;SDS011;20538;51.528;9.942;2022-10-22T03:32:59;21.30;;;11.98;;
34278;SDS011;20538;51.528;9.942;2022-10-22T03:35:25;20.88;;;11.77;;
34278;SDS011;20538;51.528;9.942;2022-10-22T03:37:51;25.58;;;12.38;;
34278;SDS011;20538;51.528;9.942;2022-10-22T03:40:17;23.27;;;12.35;;
34278;SDS011;20538;51.528;9.942;2022-10-22T03:42:43;26.45;;;12.60;;
34278;SDS011;20538;51.528;9.942;2022-10-22T03:45:09;21.75;;;12.20;;
34278;SDS011;20538;51.528;9.942;2022-10-22T03:47:35;24.67;;;12.35;;
34278;SDS011;20538;51.528;9.942;2022-10-22T03:50:01;27.45;;;12.80;;
34278;SDS011;20538;51.528;9.942;2022-10-22T03:52:27;23.63;;;12.00;;
34278;SDS011;20538;51.528;9.942;2022-10-22T03:54:59;20.45;;;12.82;;
34278;SDS011;20538;51.528;9.942;2022-10-22T03:57:24;24.35;;;13.85;;
34278;SDS011;20538;51.528;9.942;2022-10-22T03:59:50;21.63;;;12.55;;
34278;SDS011;20538;51.528;9.942;2022-10-22T04:02:15;21.20;;;12.55;;
34278;SDS011;20538;51.528;9.942;2022-10-22T04:04:41;22.83;;;12.13;;
34278;SDS011;20538;51.528;9.942;2022-10-22T04:07:07;23.95;;;12.40;;
34278;SDS011;20538;51.528;9.942;2022-10-22T04:09:33;25.30;;;13.43;;
34278;SDS011;20538;51.528;9.942;2022-10-22T04:11:59;25.75;;;13.43;;
34278;SDS011;20538;51.528;9.942;2022-10-22T04:14:25;24.23;;;12.77;;
34278;SDS011;20538;51.528;9.942;2022-10-22T04:16:52;28.42;;;12.77;;
34278;SDS011;20538;51.528;9.942;2022-10-22T04:19:17;23.00;;;11.98;;
34278;SDS011;20538;51.528;9.942;2022-10-22T04:21:43;20.92;;;13.00;;
34278;SDS011;20538;51.528;9.942;2022-10-22T04:24:09;19.75;;;12.73;;
34278;SDS011;20538;51.528;9.942;2022-10-22T04:26:35;22.75;;;12.15;;
34278;SDS011;20538;51.528;9.942;2022-10-22T04:29:00;20.95;;;12.45;;
34278;SDS011;20538;51.528;9.942;2022-10-22T04:31:26;18.08;;;11.23;;
34278;SDS011;20538;51.528;9.942;2022-10-22T04:33:53;22.80;;;12.07;;
34278;SDS011;20538;51.528;9.942;2022-10-22T04:36:20;18.60;;;11.45;;
34278;SDS011;20538;51.528;9.942;2022-10-22T04:38:50;18.70;;;11.20;;
34278;SDS011;20538;51.528;9.942;2022-10-22T04:41:21;17.00;;;11.45;;
34278;SDS011;20538;51.528;9.942;2022-10-22T04:43:49;25.27;;;12.52;;
34278;SDS011;20538;51.528;9.942;2022-10-22T04:46:16;21.33;;;11.65;;
34278;SDS011;20538;51.528;9.942;2022-10-22T04:48:42;20.30;;;12.20;;
34278;SDS011;20538;51.528;9.942;2022-10-22T04:51:10;20.92;;;11.10;;
34278;SDS011;20538;51.528;9.942;2022-10-22T04:53:38;21.23;;;12.02;;
34278;SDS011;20538;51.528;9.942;2022-10-22T04:58:40;17.08;;;11.23;;
34278;SDS011;20538;51.528;9.942;2022-10-22T05:01:14;18.92;;;9.95;;
34278;SDS011;20538;51.528;9.942;2022-10-22T05:03:42;18.70;;;10.52;;
34278;SDS011;20538;51.528;9.942;2022-10-22T05:06:09;17.60;;;11.10;;
34278;SDS011;20538;51.528;9.942;2022-10-22T05:08:35;19.45;;;10.70;;
34278;SDS011;20538;51.528;9.942;2022-10-22T05:11:09;22.00;;;11.13;;
34278;SDS011;20538;51.528;9.942;2022-10-22T05:13:38;16.13;;;10.43;;
34278;SDS011;20538;51.528;9.942;2022-10-22T05:16:04;14.93;;;10.35;;
34278;SDS011;20538;51.528;9.942;2022-10-22T05:18:32;17.92;;;10.52;;
34278;SDS011;20538;51.528;9.942;2022-10-22T05:21:00;17.00;;;10.35;;
34278;SDS011;20538;51.528;9.942;2022-10-22T05:23:29;19.83;;;11.48;;
34278;SDS011;20538;51.528;9.942;2022-10-22T05:25:55;15.50;;;10.57;;
34278;SDS011;20538;51.528;9.942;2022-10-22T05:28:20;20.25;;;10.68;;
34278;SDS011;20538;51.528;9.942;2022-10-22T05:30:53;18.33;;;10.93;;
34278;SDS011;20538;51.528;9.942;2022-10-22T05:33:20;22.85;;;10.98;;
34278;SDS011;20538;51.528;9.942;2022-10-22T05:35:49;15.73;;;11.63;;
34278;SDS011;20538;51.528;9.942;2022-10-22T05:38:15;20.65;;;10.90;;
34278;SDS011;20538;51.528;9.942;2022-10-22T05:40:42;18.38;;;10.35;;
34278;SDS011;20538;51.528;9.942;2022-10-22T05:43:08;20.48;;;11.05;;
34278;SDS011;20538;51.528;9.942;2022-10-22T05:45:37;17.23;;;10.93;;
34278;SDS011;20538;51.528;9.942;2022-10-22T05:48:03;16.52;;;11.88;;
34278;SDS011;20538;51.528;9.942;2022-10-22T05:50:30;22.23;;;11.88;;
34278;SDS011;20538;51.528;9.942;2022-10-22T05:52:56;20.65;;;11.73;;
34278;SDS011;20538;51.528;9.942;2022-10-22T05:55:21;20.17;;;11.98;;
34278;SDS011;20538;51.528;9.942;2022-10-22T05:57:47;20.42;;;12.57;;
34278;SDS011;20538;51.528;9.942;2022-10-22T06:00:14;23.13;;;12.45;;
34278;SDS011;20538;51.528;9.942;2022-10-22T06:02:40;25.70;;;12.65;;
34278;SDS011;20538;51.528;9.942;2022-10-22T06:05:06;29.50;;;14.20;;
34278;SDS011;20538;51.528;9.942;2022-10-22T06:07:32;23.05;;;13.43;;
34278;SDS011;20538;51.528;9.942;2022-10-22T06:09:59;23.08;;;13.57;;
34278;SDS011;20538;51.528;9.942;2022-10-22T06:12:24;24.10;;;14.60;;
34278;SDS011;20538;51.528;9.942;2022-10-22T06:14:50;24.70;;;13.45;;
34278;SDS011;20538;51.528;9.942;2022-10-22T06:17:16;25.85;;;13.43;;
34278;SDS011;20538;51.528;9.942;2022-10-22T06:19:43;22.02;;;13.02;;
34278;SDS011;20538;51.528;9.942;2022-10-22T06:22:09;23.23;;;14.07;;
34278;SDS011;20538;51.528;9.942;2022-10-22T06:24:35;20.85;;;13.60;;
34278;SDS011;20538;51.528;9.942;2022-10-22T06:27:03;21.88;;;12.20;;
34278;SDS011;20538;51.528;9.942;2022-10-22T06:29:28;21.75;;;13.02;;
34278;SDS011;20538;51.528;9.942;2022-10-22T06:31:54;22.98;;;12.65;;
34278;SDS011;20538;51.528;9.942;2022-10-22T06:34:19;22.77;;;12.75;;
34278;SDS011;20538;51.528;9.942;2022-10-22T06:36:45;23.58;;;13.50;;
34278;SDS011;20538;51.528;9.942;2022-10-22T06:39:12;24.58;;;13.95;;
34278;SDS011;20538;51.528;9.942;2022-10-22T06:41:39;24.88;;;14.38;;
34278;SDS011;20538;51.528;9.942;2022-10-22T06:44:04;24.17;;;14.15;;
34278;SDS011;20538;51.528;9.942;2022-10-22T06:46:30;26.98;;;14.45;;
34278;SDS011;20538;51.528;9.942;2022-10-22T06:49:00;25.40;;;13.60;;
34278;SDS011;20538;51.528;9.942;2022-10-22T06:51:27;27.27;;;14.30;;
34278;SDS011;20538;51.528;9.942;2022-10-22T06:53:54;23.15;;;13.13;;
34278;SDS011;20538;51.528;9.942;2022-10-22T06:56:21;26.30;;;13.38;;
34278;SDS011;20538;51.528;9.942;2022-10-22T06:58:48;29.40;;;13.63;;
34278;SDS011;20538;51.528;9.942;2022-10-22T07:01:15;20.98;;;12.88;;
34278;SDS011;20538;51.528;9.942;2022-10-22T07:03:41;19.73;;;12.60;;
34278;SDS011;20538;51.528;9.942;2022-10-22T07:06:08;21.83;;;12.52;;
34278;SDS011;20538;51.528;9.942;2022-10-22T07:08:35;21.35;;;12.25;;
34278;SDS011;20538;51.528;9.942;2022-10-22T07:11:08;24.20;;;13.75;;
34278;SDS011;20538;51.528;9.942;2022-10-22T07:13:36;22.67;;;12.05;;
34278;SDS011;20538;51.528;9.942;2022-10-22T07:16:02;18.38;;;12.20;;
34278;SDS011;20538;51.528;9.942;2022-10-22T07:18:28;27.05;;;13.50;;
34278;SDS011;20538;51.528;9.942;2022-10-22T07:20:58;21.60;;;12.68;;
34278;SDS011;20538;51.528;9.942;2022-10-22T07:23:24;22.58;;;11.43;;
34278;SDS011;20538;51.528;9.942;2022-10-22T07:25:49;15.75;;;11.85;;
34278;SDS011;20538;51.528;9.942;2022-10-22T07:28:15;21.55;;;11.63;;
34278;SDS011;20538;51.528;9.942;2022-10-22T07:30:41;20.92;;;11.15;;
34278;SDS011;20538;51.528;9.942;2022-10-22T07:33:07;23.23;;;11.98;;
34278;SDS011;20538;51.528;9.942;2022-10-22T07:35:33;18.63;;;10.82;;
34278;SDS011;20538;51.528;9.942;2022-10-22T07:38:01;18.63;;;11.50;;
34278;SDS011;20538;51.528;9.942;2022-10-22T07:40:27;21.00;;;11.05;;
34278;SDS011;20538;51.528;9.942;2022-10-22T07:42:52;18.88;;;11.30;;
34278;SDS011;20538;51.528;9.942;2022-10-22T07:45:18;20.98;;;10.30;;
34278;SDS011;20538;51.528;9.942;2022-10-22T07:47:45;21.73;;;10.18;;
34278;SDS011;20538;51.528;9.942;2022-10-22T07:50:12;23.90;;;10.25;;
34278;SDS011;20538;51.528;9.942;2022-10-22T07:52:37;16.33;;;10.00;;
34278;SDS011;20538;51.528;9.942;2022-10-22T07:55:03;25.73;;;11.75;;
34278;SDS011;20538;51.528;9.942;2022-10-22T07:57:29;17.38;;;10.60;;
34278;SDS011;20538;51.528;9.942;2022-10-22T07:59:55;16.48;;;9.98;;
34278;SDS011;20538;51.528;9.942;2022-10-22T08:02:23;17.02;;;10.52;;
34278;SDS011;20538;51.528;9.942;2022-10-22T08:04:49;17.13;;;10.70;;
34278;SDS011;20538;51.528;9.942;2022-10-22T08:07:15;13.32;;;9.43;;
34278;SDS011;20538;51.528;9.942;2022-10-22T08:09:43;16.63;;;10.65;;
34278;SDS011;20538;51.528;9.942;2022-10-22T08:12:09;22.73;;;11.57;;
34278;SDS011;20538;51.528;9.942;2022-10-22T08:14:34;17.90;;;11.07;;
34278;SDS011;20538;51.528;9.942;2022-10-22T08:17:00;20.35;;;11.15;;
34278;SDS011;20538;51.528;9.942;2022-10-22T08:19:26;31.95;;;16.10;;
34278;SDS011;20538;51.528;9.942;2022-10-22T08:21:59;18.58;;;10.57;;
34278;SDS011;20538;51.528;9.942;2022-10-22T08:24:25;17.70;;;9.52;;
34278;SDS011;20538;51.528;9.942;2022-10-22T08:26:51;21.42;;;10.43;;
34278;SDS011;20538;51.528;9.942;2022-10-22T08:29:21;12.48;;;8.18;;
34278;SDS011;20538;51.528;9.942;2022-10-22T08:31:48;15.18;;;9.00;;
34278;SDS011;20538;51.528;9.942;2022-10-22T08:34:14;11.80;;;8.10;;
34278;SDS011;20538;51.528;9.942;2022-10-22T08:36:40;10.52;;;7.10;;
34278;SDS011;20538;51.528;9.942;2022-10-22T08:39:06;14.38;;;7.18;;
34278;SDS011;20538;51.528;9.942;2022-10-22T08:50:11;11.95;;;6.35;;
34278;SDS011;20538;51.528;9.942;2022-10-22T08:52:43;10.82;;;6.47;;
34278;SDS011;20538;51.528;9.942;2022-10-22T08:55:13;16.27;;;6.93;;
34278;SDS011;20538;51.528;9.942;2022-10-22T08:57:45;11.57;;;6.85;;
34278;SDS011;20538;51.528;9.942;2022-10-22T09:00:45;10.98;;;6.63;;
34278;SDS011;20538;51.528;9.942;2022-10-22T09:06:13;10.30;;;5.25;;
34278;SDS011;20538;51.528;9.942;2022-10-22T09:08:43;11.35;;;5.45;;
34278;SDS011;20538;51.528;9.942;2022-10-22T09:13:48;9.35;;;5.22;;
34278;SDS011;20538;51.528;9.942;2022-10-22T09:19:35;9.10;;;3.22;;
34278;SDS011;20538;51.528;9.942;2022-10-22T09:24:37;5.50;;;2.20;;
34278;SDS011;20538;51.528;9.942;2022-10-22T09:27:16;4.70;;;2.47;;
34278;SDS011;20538;51.528;9.942;2022-10-22T09:29:47;3.95;;;2.10;;
34278;SDS011;20538;51.528;9.942;2022-10-22T09:32:14;6.80;;;2.45;;
34278;SDS011;20538;51.528;9.942;2022-10-22T09:34:43;6.28;;;2.45;;
34278;SDS011;20538;51.528;9.942;2022-10-22T09:37:13;7.97;;;2.15;;
34278;SDS011;20538;51.528;9.942;2022-10-22T09:39:46;6.47;;;2.13;;
34278;SDS011;20538;51.528;9.942;2022-10-22T09:42:16;4.18;;;2.20;;
34278;SDS011;20538;51.528;9.942;2022-10-22T09:44:43;5.30;;;2.70;;
34278;SDS011;20538;51.528;9.942;2022-10-22T09:52:53;6.35;;;2.70;;
34278;SDS011;20538;51.528;9.942;2022-10-22T09:55:22;6.38;;;3.95;;
34278;SDS011;20538;51.528;9.942;2022-10-22T09:57:57;5.50;;;2.85;;
34278;SDS011;20538;51.528;9.942;2022-10-22T10:00:30;7.15;;;3.53;;
34278;SDS011;20538;51.528;9.942;2022-10-22T10:03:02;6.18;;;3.30;;
34278;SDS011;20538;51.528;9.942;2022-10-22T10:05:32;8.02;;;2.55;;
34278;SDS011;20538;51.528;9.942;2022-10-22T10:08:06;7.43;;;3.65;;
34278;SDS011;20538;51.528;9.942;2022-10-22T10:16:03;6.78;;;2.60;;
34278;SDS011;20538;51.528;9.942;2022-10-22T10:21:36;7.22;;;3.03;;
34278;SDS011;20538;51.528;9.942;2022-10-22T10:27:04;9.25;;;3.20;;
34278;SDS011;20538;51.528;9.942;2022-10-22T10:41:29;6.43;;;2.85;;
34278;SDS011;20538;51.528;9.942;2022-10-22T10:46:46;7.03;;;3.00;;
34278;SDS011;20538;51.528;9.942;2022-10-22T10:49:36;7.65;;;3.22;;
34278;SDS011;20538;51.528;9.942;2022-10-22T10:52:39;7.32;;;2.88;;
34278;SDS011;20538;51.528;9.942;2022-10-22T10:55:16;6.25;;;2.85;;
34278;SDS011;20538;51.528;9.942;2022-10-22T11:05:54;8.93;;;2.65;;
34278;SDS011;20538;51.528;9.942;2022-10-22T11:11:00;7.65;;;2.55;;
34278;SDS011;20538;51.528;9.942;2022-10-22T11:19:33;6.88;;;2.40;;
34278;SDS011;20538;51.528;9.942;2022-10-22T11:29:44;9.13;;;2.63;;
34278;SDS011;20538;51.528;9.942;2022-10-22T11:32:18;4.93;;;2.30;;
34278;SDS011;20538;51.528;9.942;2022-10-22T11:34:50;5.90;;;2.67;;
34278;SDS011;20538;51.528;9.942;2022-10-22T11:37:20;6.45;;;3.72;;
34278;SDS011;20538;51.528;9.942;2022-10-22T11:39:56;9.35;;;3.10;;
34278;SDS011;20538;51.528;9.942;2022-10-22T11:42:34;5.72;;;2.80;;
34278;SDS011;20538;51.528;9.942;2022-10-22T11:45:04;4.75;;;2.45;;
34278;SDS011;20538;51.528;9.942;2022-10-22T11:58:54;12.82;;;2.70;;
34278;SDS011;20538;51.528;9.942;2022-10-22T12:08:43;6.38;;;3.03;;
34278;SDS011;20538;51.528;9.942;2022-10-22T12:22:29;8.70;;;2.10;;
34278;SDS011;20538;51.528;9.942;2022-10-22T12:24:59;7.70;;;2.15;;
34278;SDS011;20538;51.528;9.942;2022-10-22T12:27:27;6.28;;;2.58;;
34278;SDS011;20538;51.528;9.942;2022-10-22T12:30:15;11.05;;;2.67;;
34278;SDS011;20538;51.528;9.942;2022-10-22T12:32:52;9.75;;;2.25;;
34278;SDS011;20538;51.528;9.942;2022-10-22T12:35:22;5.47;;;2.03;;
34278;SDS011;20538;51.528;9.942;2022-10-22T12:37:50;6.35;;;2.40;;
34278;SDS011;20538;51.528;9.942;2022-10-22T12:42:51;8.68;;;2.40;;
34278;SDS011;20538;51.528;9.942;2022-10-22T12:45:21;5.35;;;2.30;;
34278;SDS011;20538;51.528;9.942;2022-10-22T12:47:57;8.23;;;2.55;;
34278;SDS011;20538;51.528;9.942;2022-10-22T12:50:28;7.50;;;1.98;;
34278;SDS011;20538;51.528;9.942;2022-10-22T12:53:03;4.03;;;1.92;;
34278;SDS011;20538;51.528;9.942;2022-10-22T12:55:30;9.13;;;2.22;;
34278;SDS011;20538;51.528;9.942;2022-10-22T12:57:57;10.55;;;1.90;;
34278;SDS011;20538;51.528;9.942;2022-10-22T13:00:25;5.18;;;1.70;;
34278;SDS011;20538;51.528;9.942;2022-10-22T13:02:56;9.48;;;2.15;;
34278;SDS011;20538;51.528;9.942;2022-10-22T13:05:33;6.00;;;2.33;;
34278;SDS011;20538;51.528;9.942;2022-10-22T13:08:09;10.82;;;2.20;;
34278;SDS011;20538;51.528;9.942;2022-10-22T13:10:38;6.97;;;1.83;;
34278;SDS011;20538;51.528;9.942;2022-10-22T13:13:05;10.35;;;2.60;;
34278;SDS011;20538;51.528;9.942;2022-10-22T13:18:20;8.60;;;1.70;;
34278;SDS011;20538;51.528;9.942;2022-10-22T13:23:20;9.52;;;2.00;;
34278;SDS011;20538;51.528;9.942;2022-10-22T13:25:58;7.45;;;2.08;;
34278;SDS011;20538;51.528;9.942;2022-10-22T13:28:34;12.98;;;2.83;;
34278;SDS011;20538;51.528;9.942;2022-10-22T13:31:01;10.70;;;2.40;;
34278;SDS011;20538;51.528;9.942;2022-10-22T13:33:35;5.50;;;1.90;;
34278;SDS011;20538;51.528;9.942;2022-10-22T13:36:05;9.27;;;2.47;;
34278;SDS011;20538;51.528;9.942;2022-10-22T13:38:36;6.28;;;1.90;;
34278;SDS011;20538;51.528;9.942;2022-10-22T13:41:02;4.78;;;1.85;;
34278;SDS011;20538;51.528;9.942;2022-10-22T13:43:28;12.63;;;2.55;;
34278;SDS011;20538;51.528;9.942;2022-10-22T13:45:56;7.28;;;2.85;;
34278;SDS011;20538;51.528;9.942;2022-10-22T13:48:23;10.32;;;2.88;;
34278;SDS011;20538;51.528;9.942;2022-10-22T13:50:50;8.02;;;1.80;;
34278;SDS011;20538;51.528;9.942;2022-10-22T13:53:18;7.00;;;2.28;;
34278;SDS011;20538;51.528;9.942;2022-10-22T13:55:46;5.50;;;2.10;;
34278;SDS011;20538;51.528;9.942;2022-10-22T13:58:15;10.85;;;2.10;;
34278;SDS011;20538;51.528;9.942;2022-10-22T14:00:45;8.65;;;2.47;;
34278;SDS011;20538;51.528;9.942;2022-10-22T14:03:18;8.20;;;2.10;;
34278;SDS011;20538;51.528;9.942;2022-10-22T14:05:45;8.98;;;1.92;;
34278;SDS011;20538;51.528;9.942;2022-10-22T14:08:13;7.35;;;2.53;;
34278;SDS011;20538;51.528;9.942;2022-10-22T14:10:46;6.97;;;2.50;;
34278;SDS011;20538;51.528;9.942;2022-10-22T14:13:12;5.10;;;2.63;;
34278;SDS011;20538;51.528;9.942;2022-10-22T14:15:39;5.40;;;2.15;;
34278;SDS011;20538;51.528;9.942;2022-10-22T14:18:06;7.13;;;2.17;;
34278;SDS011;20538;51.528;9.942;2022-10-22T14:20:35;7.22;;;1.90;;
34278;SDS011;20538;51.528;9.942;2022-10-22T14:23:10;8.73;;;2.78;;
34278;SDS011;20538;51.528;9.942;2022-10-22T14:25:38;5.25;;;1.98;;
34278;SDS011;20538;51.528;9.942;2022-10-22T14:28:04;12.57;;;2.15;;
34278;SDS011;20538;51.528;9.942;2022-10-22T14:30:30;8.48;;;2.58;;
34278;SDS011;20538;51.528;9.942;2022-10-22T14:32:57;4.65;;;1.60;;
34278;SDS011;20538;51.528;9.942;2022-10-22T14:35:23;5.40;;;1.60;;
34278;SDS011;20538;51.528;9.942;2022-10-22T14:37:49;4.65;;;1.50;;
34278;SDS011;20538;51.528;9.942;2022-10-22T14:40:16;5.43;;;1.80;;
34278;SDS011;20538;51.528;9.942;2022-10-22T14:42:44;5.18;;;1.40;;
34278;SDS011;20538;51.528;9.942;2022-10-22T14:47:47;4.05;;;1.45;;
34278;SDS011;20538;51.528;9.942;2022-10-22T14:50:14;9.52;;;2.05;;
34278;SDS011;20538;51.528;9.942;2022-10-22T14:52:40;4.47;;;1.38;;
34278;SDS011;20538;51.528;9.942;2022-10-22T14:55:07;5.68;;;1.55;;
34278;SDS011;20538;51.528;9.942;2022-10-22T14:57:38;8.80;;;2.00;;
34278;SDS011;20538;51.528;9.942;2022-10-22T15:00:08;8.35;;;1.90;;
34278;SDS011;20538;51.528;9.942;2022-10-22T15:02:37;7.70;;;1.70;;
34278;SDS011;20538;51.528;9.942;2022-10-22T15:05:08;6.03;;;1.55;;
34278;SDS011;20538;51.528;9.942;2022-10-22T15:07:35;8.88;;;1.80;;
34278;SDS011;20538;51.528;9.942;2022-10-22T15:10:01;5.65;;;1.63;;
34278;SDS011;20538;51.528;9.942;2022-10-22T15:12:28;13.85;;;1.88;;
34278;SDS011;20538;51.528;9.942;2022-10-22T15:14:54;7.05;;;2.15;;
34278;SDS011;20538;51.528;9.942;2022-10-22T15:17:19;7.20;;;1.60;;
34278;SDS011;20538;51.528;9.942;2022-10-22T15:22:53;4.95;;;2.00;;
34278;SDS011;20538;51.528;9.942;2022-10-22T15:25:23;7.13;;;1.60;;
34278;SDS011;20538;51.528;9.942;2022-10-22T15:27:48;7.47;;;2.15;;
34278;SDS011;20538;51.528;9.942;2022-10-22T15:30:14;8.15;;;2.40;;
34278;SDS011;20538;51.528;9.942;2022-10-22T15:32:40;8.32;;;2.55;;
34278;SDS011;20538;51.528;9.942;2022-10-22T15:35:05;5.47;;;1.83;;
34278;SDS011;20538;51.528;9.942;2022-10-22T15:37:32;7.13;;;1.70;;
34278;SDS011;20538;51.528;9.942;2022-10-22T15:39:57;5.13;;;1.90;;
34278;SDS011;20538;51.528;9.942;2022-10-22T15:42:24;10.27;;;2.80;;
34278;SDS011;20538;51.528;9.942;2022-10-22T15:44:52;13.52;;;2.50;;
34278;SDS011;20538;51.528;9.942;2022-10-22T15:47:22;7.72;;;2.08;;
34278;SDS011;20538;51.528;9.942;2022-10-22T15:49:49;8.77;;;1.90;;
34278;SDS011;20538;51.528;9.942;2022-10-22T15:52:15;6.53;;;2.13;;
34278;SDS011;20538;51.528;9.942;2022-10-22T15:54:40;3.72;;;1.83;;
34278;SDS011;20538;51.528;9.942;2022-10-22T15:57:07;8.05;;;2.05;;
34278;SDS011;20538;51.528;9.942;2022-10-22T15:59:34;5.40;;;2.95;;
34278;SDS011;20538;51.528;9.942;2022-10-22T16:02:00;10.55;;;3.25;;
34278;SDS011;20538;51.528;9.942;2022-10-22T16:04:26;6.68;;;2.28;;
34278;SDS011;20538;51.528;9.942;2022-10-22T16:06:52;6.80;;;2.72;;
34278;SDS011;20538;51.528;9.942;2022-10-22T16:09:19;12.20;;;3.28;;
34278;SDS011;20538;51.528;9.942;2022-10-22T16:11:47;9.90;;;3.50;;
34278;SDS011;20538;51.528;9.942;2022-10-22T16:14:14;5.57;;;2.70;;
34278;SDS011;20538;51.528;9.942;2022-10-22T16:16:42;12.45;;;4.53;;
34278;SDS011;20538;51.528;9.942;2022-10-22T16:19:10;11.73;;;2.90;;
34278;SDS011;20538;51.528;9.942;2022-10-22T16:21:36;4.15;;;2.45;;
34278;SDS011;20538;51.528;9.942;2022-10-22T16:24:03;5.85;;;2.20;;
34278;SDS011;20538;51.528;9.942;2022-10-22T16:26:29;4.40;;;2.10;;
34278;SDS011;20538;51.528;9.942;2022-10-22T16:28:55;8.07;;;1.95;;
34278;SDS011;20538;51.528;9.942;2022-10-22T16:31:22;7.25;;;1.90;;
34278;SDS011;20538;51.528;9.942;2022-10-22T16:33:48;9.80;;;2.45;;
34278;SDS011;20538;51.528;9.942;2022-10-22T16:36:14;14.27;;;2.58;;
34278;SDS011;20538;51.528;9.942;2022-10-22T16:38:42;10.65;;;2.17;;
34278;SDS011;20538;51.528;9.942;2022-10-22T16:43:48;6.82;;;2.30;;
34278;SDS011;20538;51.528;9.942;2022-10-22T16:46:15;6.18;;;1.80;;
34278;SDS011;20538;51.528;9.942;2022-10-22T16:48:43;10.82;;;2.13;;
34278;SDS011;20538;51.528;9.942;2022-10-22T16:51:17;5.93;;;2.00;;
34278;SDS011;20538;51.528;9.942;2022-10-22T16:53:44;8.98;;;2.33;;
34278;SDS011;20538;51.528;9.942;2022-10-22T16:56:11;11.18;;;2.50;;
34278;SDS011;20538;51.528;9.942;2022-10-22T16:58:38;5.93;;;2.30;;
34278;SDS011;20538;51.528;9.942;2022-10-22T17:01:09;5.30;;;2.03;;
34278;SDS011;20538;51.528;9.942;2022-10-22T17:03:34;8.75;;;3.25;;
34278;SDS011;20538;51.528;9.942;2022-10-22T17:06:00;13.73;;;5.30;;
34278;SDS011;20538;51.528;9.942;2022-10-22T17:08:28;13.48;;;4.07;;